Juniata, Iowa
Current Conditions -  °F | °C
As of 1:15 PM on Thursday 27 Nov 2014 (Local Time) from KSLB Reporting Station
Overcast Overcast  
Wind Chill: -5°   Ceiling: 4700
Heat Index:   Visibility: 10mi
Dew Point: -4°   Wind: 7mph
Humidity: 61%   Direction: 150°SSE
Pressure: 30.41"   Gusts: NA
Location:  42.674°N, 95.1635°W
Report Text: KSLB 271915Z AUTO 15006KT 10SM SCT039 OVC047 M14/M20 A3041 RMK AO2
Loading
Personal Weather Stations






























Interactive Weather Map New forecast layout! Learn more

10-Day Weather Forecast

Advertisements
Track Severe Weather on mobile